Latest Coastal Weather Observations for Mandora

IDW60701

Issued at 9:42 am WST Tuesday 1 September 2015 (issued every 10 minutes, with the page automatically refreshed every 10 minutes)

About coastal observations | Map of coastal stations | Coastal observations for WA | Marine services | Other Formats
Station Details ID: 004019 Name: MANDORA Lat: -19.74 Lon: 120.84 Height: 7.5 m
Data from the previous 72 hours. | See also: Recent months at Mandora
Date/Time
WST
Temp

°C
Wind Pressure Rain
since 9am
mm
Weather Cloud Vis
km
Sea
Height
m
Swell
Dir
 
Speed
knots
Gust
knots
hPa Trend Height
m
Period
s
Dir
01/09:30am 28.0 SSE 11 17 1014.3 - 0.0 - - - - - - -
01/09:00am 26.5 S 11 15 1014.4 - - - - - - - - -
01/08:30am 24.2 SSW 10 15 1014.5 - - - - - - - - -
01/08:00am 21.1 WSW 7 9 1014.4 - - - - - - - - -
01/07:30am 18.3 W 5 8 1014.4 - - - - - - - - -
01/07:00am 14.6 WNW 3 4 1014.0 - - - - - - - - -
01/06:30am 12.1 SSW 3 6 1013.7 - - - - - - - - -
01/06:00am 11.6 SW 5 6 1013.5 - - - - - - - - -
01/05:30am 12.5 NE 4 7 1013.4 - - - - - - - - -
01/05:00am 13.1 WSW 4 5 1013.0 - - - - - - - - -
01/04:30am 12.6 W 1 3 1012.9 - - - - - - - - -
01/04:00am 13.4 WSW 3 6 1012.8 - - - - - - - - -
01/03:30am 14.4 CALM 0 0 1012.9 - - - - - - - - -
01/03:00am 15.8 SW 4 5 1013.0 - - - - - - - - -
01/02:30am 16.6 SW 6 8 1013.2 - - - - - - - - -
01/02:00am 17.2 W 7 9 1013.2 - - - - - - - - -
01/01:30am 17.4 W 7 9 1013.3 - - - - - - - - -
01/01:00am 16.9 WSW 6 8 1013.5 - - - - - - - - -
01/12:30am 16.6 SW 3 4 1014.0 - - - - - - - - -
01/12:00am 16.9 WSW 4 5 1014.3 - - - - - - - - -
 
Date/Time
WST
Temp

°C
Wind Pressure Rain
since 9am
mm
Weather Cloud Vis
km
Sea
Height
m
Swell
Dir
 
Speed
knots
Gust
knots
hPa Trend Height
m
Period
s
Dir
31/11:30pm 17.7 W 4 5 1014.4 - - - - - - - - -
31/11:00pm 17.7 SW 5 6 1014.3 - - - - - - - - -
31/10:30pm 18.0 W 4 4 1014.4 - - - - - - - - -
31/10:00pm 18.9 W 5 6 1014.5 - - - - - - - - -
31/09:30pm 19.6 W 6 7 1014.6 - - - - - - - - -
31/09:00pm 19.6 W 6 7 1014.7 - - - - - - - - -
31/08:30pm 19.9 W 5 7 1014.6 - - - - - - - - -
31/08:00pm 20.2 W 6 8 1014.4 - - - - - - - - -
31/07:30pm 20.5 W 5 6 1014.0 - - - - - - - - -
31/07:00pm 21.0 WNW 6 7 1013.5 - - - - - - - - -
31/06:30pm 21.5 WNW 5 6 1013.1 - - - - - - - - -
31/06:00pm 22.5 NW 6 9 1012.8 - - - - - - - - -
31/05:30pm 23.5 NNW 9 13 1012.6 - - - - - - - - -
31/05:00pm 24.1 NNW 12 17 1012.4 - - - - - - - - -
31/04:30pm 24.7 NNW 10 15 1012.2 - - - - - - - - -
31/04:00pm 24.8 NNW 12 18 1012.1 - - - - - - - - -
31/03:30pm 25.7 NNW 13 19 1012.2 - - - - - - - - -
31/03:00pm 26.1 NNW 13 19 1012.4 - - - - - - - - -
31/02:30pm 26.6 NW 14 19 1012.6 - - - - - - - - -
31/02:00pm 27.5 NW 11 18 1012.9 - - - - - - - - -
31/11:00am 25.9 NW 11 16 1014.9 - 0.0 - - - - - - -
31/10:30am 26.4 NW 10 15 1015.3 - 0.0 - - - - - - -
31/10:00am 26.2 WNW 11 15 1015.4 - 0.0 - - - - - - -
31/09:30am 25.7 WNW 10 16 1015.4 - 0.0 - - - - - - -
31/09:00am 25.3 WNW 9 14 1015.1 - 0.0 - - - - - - -
31/08:30am 24.9 WNW 9 13 1014.9 - 0.0 - - - - - - -
31/08:00am 21.8 S 2 5 1014.9 - 0.0 - - - - - - -
31/07:30am 17.6 CALM 0 3 1014.9 - 0.0 - - - - - - -
31/07:00am 14.7 E 4 5 1014.7 - 0.0 - - - - - - -
31/06:30am 14.0 CALM 0 0 1014.4 - 0.0 - - - - - - -
31/06:00am 12.6 WNW 3 4 1014.1 - 0.0 - - - - - - -
31/05:30am 12.4 CALM 0 0 1014.0 - 0.0 - - - - - - -
31/05:00am 12.6 WNW 5 6 1013.9 - 0.0 - - - - - - -
31/04:30am 12.2 WNW 3 4 1013.8 - 0.0 - - - - - - -
31/04:00am 14.9 WNW 4 5 1013.8 - 0.0 - - - - - - -
31/03:30am 14.3 WNW 5 6 1013.9 - 0.0 - - - - - - -
31/03:00am 12.8 WNW 4 5 1014.2 - 0.0 - - - - - - -
31/02:30am 13.2 CALM 0 0 1014.5 - 0.0 - - - - - - -
31/02:00am 13.7 CALM 0 0 1014.8 - 0.0 - - - - - - -
31/01:30am 14.3 CALM 0 0 1015.0 - 0.0 - - - - - - -
31/01:00am 15.2 W 3 4 1015.3 - 0.0 - - - - - - -
31/12:30am 16.1 WSW 3 4 1015.5 - 0.0 - - - - - - -
31/12:00am 18.0 WNW 5 5 1015.8 - 0.0 - - - - - - -
 
Date/Time
WST
Temp

°C
Wind Pressure Rain
since 9am
mm
Weather Cloud Vis
km
Sea
Height
m
Swell
Dir
 
Speed
knots
Gust
knots
hPa Trend Height
m
Period
s
Dir
30/11:30pm 17.6 W 6 7 1015.9 - 0.0 - - - - - - -
30/11:00pm 16.5 NNW 4 5 1016.0 - 0.0 - - - - - - -
30/10:30pm 17.9 NW 3 5 1016.3 - 0.0 - - - - - - -
30/10:00pm 18.3 W 4 5 1016.4 - 0.0 - - - - - - -
30/09:30pm 19.1 WNW 5 6 1016.3 - 0.0 - - - - - - -
30/09:00pm 19.3 WNW 5 6 1016.0 - 0.0 - - - - - - -
30/08:30pm 19.2 W 5 6 1015.9 - 0.0 - - - - - - -
30/08:00pm 19.0 W 5 6 1015.6 - 0.0 - - - - - - -
30/07:30pm 19.5 NW 5 6 1015.4 - 0.0 - - - - - - -
30/07:00pm 19.7 NW 5 6 1015.2 - 0.0 - - - - - - -
30/06:30pm 20.6 NW 5 6 1015.0 - 0.0 - - - - - - -
30/06:00pm 22.0 NW 5 7 1014.6 - 0.0 - - - - - - -
30/05:30pm 23.3 NW 8 13 1014.6 - 0.0 - - - - - - -
30/05:00pm 23.9 NW 11 15 1014.5 - 0.0 - - - - - - -
30/04:30pm 24.6 NW 10 15 1014.5 - 0.0 - - - - - - -
30/04:00pm 25.1 NW 12 16 1014.4 - 0.0 - - - - - - -
30/03:30pm 25.5 WNW 11 16 1014.2 - 0.0 - - - - - - -
30/03:00pm 26.2 NW 11 18 1014.2 - 0.0 - - - - - - -
30/02:30pm 26.5 WNW 12 17 1014.3 - 0.0 - - - - - - -
30/02:00pm 26.6 WNW 12 17 1014.6 - 0.0 - - - - - - -
30/01:30pm 26.9 WNW 11 16 1014.8 - 0.0 - - - - - - -
30/01:00pm 27.0 WNW 12 17 1015.4 - 0.0 - - - - - - -
30/12:30pm 26.8 WNW 12 18 1015.5 - 0.0 - - - - - - -
30/12:00pm 26.9 W 12 18 1016.0 - 0.0 - - - - - - -
30/11:30am 26.9 W 10 15 1016.4 - 0.0 - - - - - - -
30/11:00am 26.8 W 11 16 1017.1 - 0.0 - - - - - - -
30/10:30am 25.6 W 10 16 1017.6 - 0.0 - - - - - - -
30/10:00am 25.5 W 11 18 1018.0 - 0.0 - - - - - - -
30/09:30am 25.1 WNW 10 14 1017.9 - 0.0 - - - - - - -
30/09:00am 24.2 W 9 14 1017.7 - 0.0 - - - - - - -
30/08:30am 23.5 W 7 11 1017.5 - 0.0 - - - - - - -
30/08:00am 21.3 SW 7 8 1017.3 - 0.0 - - - - - - -
30/07:30am 19.0 SSW 5 7 1017.1 - 0.0 - - - - - - -
30/07:00am 15.9 SE 3 4 1017.0 - 0.0 - - - - - - -
30/06:30am 14.9 CALM 0 0 1016.8 - 0.0 - - - - - - -
30/06:00am 14.9 SSW 4 5 1016.1 - 0.0 - - - - - - -
30/05:30am 15.8 S 5 5 1015.6 - 0.0 - - - - - - -
30/05:00am 16.5 S 5 7 1015.3 - 0.0 - - - - - - -
30/04:30am 16.3 SSW 6 7 1015.2 - 0.0 - - - - - - -
30/04:00am 16.0 SSW 6 7 1015.0 - 0.0 - - - - - - -
30/03:30am 15.4 SW 6 6 1015.0 - 0.0 - - - - - - -
30/03:00am 13.3 SW 4 5 1014.9 - 0.0 - - - - - - -
30/02:30am 14.1 SW 4 5 1014.7 - 0.0 - - - - - - -
30/02:00am 14.5 WSW 3 4 1015.0 - 0.0 - - - - - - -
30/01:30am 16.1 WSW 5 5 1015.2 - 0.0 - - - - - - -
30/01:00am 16.1 SW 4 5 1015.6 - 0.0 - - - - - - -
30/12:30am 17.4 WSW 3 4 1015.6 - 0.0 - - - - - - -
30/12:00am 17.4 W 5 5 1015.8 - 0.0 - - - - - - -
 
Date/Time
WST
Temp

°C
Wind Pressure Rain
since 9am
mm
Weather Cloud Vis
km
Sea
Height
m
Swell
Dir
 
Speed
knots
Gust
knots
hPa Trend Height
m
Period
s
Dir
29/11:30pm 17.6 WSW 6 7 1016.0 - 0.0 - - - - - - -
29/11:00pm 17.9 WSW 5 5 1016.1 - 0.0 - - - - - - -
29/10:30pm 18.7 W 5 6 1016.2 - 0.0 - - - - - - -
29/10:00pm 18.8 W 5 7 1016.5 - 0.0 - - - - - - -
29/09:30pm 19.0 W 4 5 1016.4 - 0.0 - - - - - - -
29/09:00pm 19.4 WNW 5 7 1016.4 - 0.0 - - - - - - -
29/08:30pm 19.6 WNW 6 8 1016.3 - 0.0 - - - - - - -
29/08:00pm 20.0 WNW 5 7 1016.2 - 0.0 - - - - - - -
29/07:30pm 20.5 WNW 5 7 1015.8 - 0.0 - - - - - - -
29/07:00pm 21.0 WNW 6 8 1015.5 - 0.0 - - - - - - -
29/06:30pm 21.5 WNW 7 9 1015.2 - 0.0 - - - - - - -
29/06:00pm 22.3 WNW 5 7 1014.9 - 0.0 - - - - - - -
29/05:30pm 23.4 WNW 8 13 1014.6 - 0.0 - - - - - - -
29/05:00pm 24.4 NW 8 13 1014.3 - 0.0 - - - - - - -
29/04:30pm 25.2 NW 10 14 1014.1 - 0.0 - - - - - - -
29/04:00pm 26.7 NW 9 14 1013.8 - 0.0 - - - - - - -
29/03:30pm 26.5 NW 10 14 1013.8 - 0.0 - - - - - - -
29/03:00pm 27.0 NW 11 15 1014.0 - 0.0 - - - - - - -
29/02:30pm 27.4 NW 11 16 1014.2 - 0.0 - - - - - - -
29/02:00pm 27.4 NW 10 14 1014.5 - 0.0 - - - - - - -
29/01:30pm 27.5 NW 11 16 1014.8 - 0.0 - - - - - - -
29/01:00pm 28.4 NW 10 15 1015.1 - 0.0 - - - - - - -
29/12:30pm 28.2 NW 10 15 1015.5 - 0.0 - - - - - - -
29/12:00pm 27.7 NW 8 14 1016.1 - 0.0 - - - - - - -
29/11:30am 28.0 NW 8 13 1016.7 - 0.0 - - - - - - -
29/11:00am 26.1 W 5 9 1017.2 - 0.0 - - - - - - -
29/10:30am 25.8 W 6 9 1017.7 - 0.0 - - - - - - -
29/10:00am 26.6 WNW 5 9 1017.9 - 0.0 - - - - - - -

Other Formats:

Comma delimited format used in spreadsheet applications
http://www.bom.gov.au/fwo/IDW60701/IDW60701.94200.axf

JavaScript Object Notation format (JSON) in row-major order
http://www.bom.gov.au/fwo/IDW60701/IDW60701.94200.json